Bartow, FL

12:01 AM EDT en Octubre 31, 2014 (GMT -0400)
Sheffield Road | Change Station
CLOSE
Current Station
Estación meteorológica personal
Location: Winter Haven, FL
Altura: 138 ft
Estaciones meteorológicas cercanas

Alt 138 ft 27.97 °N, 81.79 °W | Updated 15 minutes ago

Nublado
Nublado
70.5 ° F
Sensación térmica 70.5 ° F
N
0.0
Viento Variable Viento desde Norte
Gusts 0.0 mph

Hoy
Alta -- | Baja -- ° F
--% Posibilidad de precipitaciones
Ayer
Alta -- | Baja -- ° F
Precip. -- pul
7:37 AM 6:43 PM
Creciente, 51% visible
Presión 29.91 pul
Visibilidad 10.0 Millas
Nubes Baja 4200 ft
Nublado 5000 ft
Punto de rocío 68 ° F
Humedad 92%
Precipitaciones 0.00 pul
Espesor de la nieve No disponible.
UV 0 de una escala de 12
Polen 4.10 de una escala de 12
Calidad del aire No disponible.
Flu Activity No disponible.
METAR KBOW 310355Z AUTO 31004KT 10SM FEW042 OVC050 22/18 A2991 RMK AO2

More Conditions Fewer Conditions

Presión 29.91 pul
Visibilidad 10.0 Millas
Nubes Baja 4200 ft
Nublado 5000 ft
Punto de rocío 68 ° F
Humedad 92%
Precipitaciones 0.00 pul
Espesor de la nieve No disponible.
UV 0 de una escala de 12
Polen 4.10 de una escala de 12
Calidad del aire No disponible.
Flu Activity No disponible.
METAR KBOW 310355Z AUTO 31004KT 10SM FEW042 OVC050 22/18 A2991 RMK AO2

More Conditions Fewer Conditions

10-Day Weather Forecast

Almanac

Astronomía

Oct. 31, 2014 Salida Puesta
Hora real
Crepúsculo civil
Crepúsculo náutico
Crepúsculo astronómico
Luna
Horas de luz
Horas de luz
Tomorrow will be .
, % of the Moon is Illuminated

Extremos de hoy

Máximos del estado Bajos del estado

Community

WunderPhotos

Upload Photos

1,766,563 ¡fotos cargadas!

WunderBlogs® & News

Nearby

Calidad del aire

  Calidad del aire Índice AQ Contaminante
Not available.

Grosos de nieve

Estación Profundido Altura

Actividad de terremotos

Ciudad Distance Mag. Tiempo y dato
Magnitud mínima muestra es 2,5.

Temperaturas de aguas costeras

Lugar Temperatura

Estaciones meteorológicas cercanas